createdAt,value
2018-03-19T00:01:04.126Z,99.90
2018-03-19T00:03:31.738Z,99.90
2018-03-19T00:05:59.352Z,99.90
2018-03-19T00:08:26.995Z,99.90
2018-03-19T00:10:54.648Z,99.90
2018-03-19T00:13:23.064Z,99.90
2018-03-19T00:15:50.705Z,99.90
2018-03-19T00:18:18.263Z,99.90
2018-03-19T00:20:45.871Z,99.90
2018-03-19T00:23:13.487Z,99.90
2018-03-19T00:25:41.038Z,99.90
2018-03-19T00:28:08.646Z,99.90
2018-03-19T00:30:36.232Z,99.90
2018-03-19T00:33:05.553Z,99.90
2018-03-19T00:35:34.032Z,99.90
2018-03-19T00:38:01.651Z,99.90
2018-03-19T00:40:29.287Z,99.90
2018-03-19T00:42:57.142Z,99.90
2018-03-19T00:45:24.760Z,99.90
2018-03-19T00:47:52.335Z,99.90
2018-03-19T00:50:20.732Z,99.90
2018-03-19T00:52:48.311Z,99.90
2018-03-19T00:55:15.959Z,99.90
2018-03-19T00:57:43.559Z,99.90
2018-03-19T01:00:11.191Z,99.90
2018-03-19T01:02:38.794Z,99.90
2018-03-19T01:05:06.424Z,99.90
2018-03-19T01:07:34.024Z,99.90
2018-03-19T01:10:01.602Z,99.90
2018-03-19T01:12:29.191Z,99.90
2018-03-19T01:14:56.827Z,99.90
2018-03-19T01:17:24.443Z,99.90
2018-03-19T01:19:52.068Z,99.90
2018-03-19T01:22:19.700Z,99.90
2018-03-19T01:24:48.742Z,99.90
2018-03-19T01:27:16.355Z,99.90
2018-03-19T01:29:44.690Z,99.90
2018-03-19T01:32:12.327Z,99.90
2018-03-19T01:34:39.953Z,99.90
2018-03-19T01:37:08.300Z,99.90
2018-03-19T01:39:35.917Z,99.90
2018-03-19T01:42:03.522Z,99.90
2018-03-19T01:44:31.154Z,99.90
2018-03-19T01:46:58.780Z,99.90
2018-03-19T01:49:27.175Z,99.90
2018-03-19T01:51:54.807Z,99.90
2018-03-19T01:54:23.163Z,99.90
2018-03-19T01:56:51.385Z,99.90
2018-03-19T01:59:19.012Z,99.90
2018-03-19T02:01:46.618Z,99.90
2018-03-19T02:04:14.259Z,99.90
2018-03-19T02:06:41.843Z,99.90
2018-03-19T02:09:09.636Z,99.90
2018-03-19T02:11:37.281Z,99.90
2018-03-19T02:14:04.896Z,99.90
2018-03-19T02:16:33.254Z,99.90
2018-03-19T02:19:00.880Z,99.90
2018-03-19T02:21:28.524Z,99.90
2018-03-19T02:23:56.114Z,99.90
2018-03-19T02:26:23.770Z,99.90
2018-03-19T02:28:51.353Z,99.90
2018-03-19T02:31:18.970Z,99.90
2018-03-19T02:33:46.593Z,99.90
2018-03-19T02:36:14.999Z,99.90
2018-03-19T02:38:42.682Z,99.90
2018-03-19T02:41:10.302Z,99.90
2018-03-19T02:43:38.644Z,99.90
2018-03-19T02:48:44.823Z,99.90
2018-03-19T02:51:12.369Z,99.90
2018-03-19T02:53:39.930Z,99.90
2018-03-19T02:56:07.471Z,99.90
2018-03-19T02:58:35.023Z,99.90
2018-03-19T03:01:02.590Z,99.90
2018-03-19T03:03:30.186Z,99.90
2018-03-19T03:05:57.769Z,99.90
2018-03-19T03:08:26.138Z,99.90
2018-03-19T03:10:54.510Z,99.90
2018-03-19T03:13:22.078Z,99.90
2018-03-19T03:15:51.277Z,99.90
2018-03-19T03:18:19.635Z,99.90
2018-03-19T03:20:47.263Z,99.90
2018-03-19T03:23:14.866Z,99.90
2018-03-19T03:25:42.487Z,99.90
2018-03-19T03:28:10.118Z,99.90
2018-03-19T03:30:37.723Z,99.90
2018-03-19T03:33:05.372Z,99.90
2018-03-19T03:35:32.961Z,99.90
2018-03-19T03:38:00.578Z,99.90
2018-03-19T03:40:28.194Z,99.90
2018-03-19T03:42:55.811Z,99.90
2018-03-19T03:45:23.434Z,99.90
2018-03-19T03:47:51.824Z,99.90
2018-03-19T03:50:19.464Z,99.90
2018-03-19T03:52:47.848Z,99.90
2018-03-19T03:55:16.236Z,99.90
2018-03-19T03:57:43.875Z,99.90
2018-03-19T04:00:12.243Z,99.90
2018-03-19T04:02:39.862Z,99.90
2018-03-19T04:05:07.495Z,99.90
2018-03-19T04:07:35.084Z,99.90
2018-03-19T04:10:02.708Z,99.90
2018-03-19T04:12:31.107Z,99.90
2018-03-19T04:14:58.736Z,99.90
2018-03-19T04:17:26.340Z,99.90
2018-03-19T04:19:53.996Z,99.90
2018-03-19T04:22:21.646Z,99.90
2018-03-19T04:24:49.244Z,99.90
2018-03-19T04:27:16.830Z,99.90
2018-03-19T04:29:44.475Z,99.90
2018-03-19T04:32:12.116Z,99.90
2018-03-19T04:34:39.749Z,99.90
2018-03-19T04:37:07.379Z,99.90
2018-03-19T04:39:34.951Z,99.90
2018-03-19T04:42:02.533Z,99.90
2018-03-19T04:44:30.145Z,99.90
2018-03-19T04:46:57.754Z,99.90
2018-03-19T04:49:25.357Z,99.90
2018-03-19T04:54:53.322Z,99.90
2018-03-19T04:57:20.928Z,99.90
2018-03-19T04:59:48.544Z,99.90
2018-03-19T05:02:16.452Z,99.90
2018-03-19T05:04:44.845Z,99.90
2018-03-19T05:07:13.275Z,99.90
2018-03-19T05:09:40.879Z,99.90
2018-03-19T05:12:08.473Z,99.90
2018-03-19T05:14:39.128Z,99.90
2018-03-19T05:17:06.774Z,99.90
2018-03-19T05:19:34.389Z,99.90
2018-03-19T05:22:02.737Z,99.90
2018-03-19T05:24:30.318Z,99.90
2018-03-19T05:26:57.952Z,99.90
2018-03-19T05:29:25.581Z,99.90
2018-03-19T05:31:53.947Z,99.90
2018-03-19T05:34:22.323Z,99.90
2018-03-19T05:36:49.902Z,99.90
2018-03-19T05:39:17.485Z,99.90
2018-03-19T05:41:45.092Z,99.90
2018-03-19T05:44:13.472Z,99.90
2018-03-19T05:46:41.098Z,99.90
2018-03-19T05:49:08.689Z,99.90
2018-03-19T05:51:37.029Z,99.90
2018-03-19T05:54:04.633Z,99.90
2018-03-19T05:56:32.988Z,99.90
2018-03-19T05:59:01.160Z,99.90
2018-03-19T06:01:28.766Z,99.90
2018-03-19T06:03:56.388Z,99.90
2018-03-19T06:06:23.967Z,99.90
2018-03-19T06:08:53.327Z,99.90
2018-03-19T06:11:20.883Z,99.90
2018-03-19T06:13:48.503Z,99.90
2018-03-19T06:16:16.098Z,99.90
2018-03-19T06:18:43.728Z,99.90
2018-03-19T06:21:11.379Z,99.90
2018-03-19T06:23:39.743Z,99.90
2018-03-19T06:26:08.126Z,99.90
2018-03-19T06:28:36.525Z,99.90
2018-03-19T06:31:04.162Z,99.90
2018-03-19T06:33:32.507Z,99.90
2018-03-19T06:36:00.154Z,99.90
2018-03-19T06:38:27.743Z,99.90
2018-03-19T06:40:55.406Z,99.90
2018-03-19T06:43:22.984Z,99.90
2018-03-19T06:45:51.363Z,99.90
2018-03-19T06:48:19.747Z,99.90
2018-03-19T06:50:48.139Z,99.90
2018-03-19T06:53:15.763Z,99.90
2018-03-19T06:55:43.407Z,99.90
2018-03-19T06:58:11.018Z,99.90
2018-03-19T07:00:56.144Z,99.90
2018-03-19T07:03:23.752Z,99.90
2018-03-19T07:05:51.345Z,99.90
2018-03-19T07:08:18.966Z,99.90
2018-03-19T07:10:46.561Z,99.90
2018-03-19T07:13:14.211Z,99.90
2018-03-19T07:15:41.835Z,99.90
2018-03-19T07:18:09.464Z,99.90
2018-03-19T07:20:37.086Z,99.90
2018-03-19T07:23:04.652Z,99.90
2018-03-19T07:25:32.267Z,99.90
2018-03-19T07:27:59.906Z,99.90
2018-03-19T07:30:27.502Z,99.90
2018-03-19T07:32:55.847Z,99.90
2018-03-19T07:35:23.474Z,99.90
2018-03-19T07:37:51.155Z,99.90
2018-03-19T07:40:18.815Z,99.90
2018-03-19T07:42:46.433Z,99.90
2018-03-19T07:45:14.803Z,99.90
2018-03-19T07:47:43.182Z,99.90
2018-03-19T07:50:10.826Z,99.90
2018-03-19T07:52:38.435Z,99.90
2018-03-19T07:55:06.040Z,99.90
2018-03-19T07:57:33.651Z,99.90
2018-03-19T08:00:01.264Z,99.90
2018-03-19T08:02:28.886Z,99.90
2018-03-19T08:04:56.443Z,99.90
2018-03-19T08:07:24.064Z,99.90
2018-03-19T08:09:52.434Z,99.90
2018-03-19T08:12:20.119Z,99.90
2018-03-19T08:14:47.674Z,99.90
2018-03-19T08:17:16.139Z,99.90
2018-03-19T08:19:43.745Z,99.90
2018-03-19T08:22:11.497Z,99.90
2018-03-19T08:24:39.125Z,99.90
2018-03-19T08:27:07.564Z,99.90
2018-03-19T08:29:35.167Z,99.90
2018-03-19T08:32:03.507Z,99.90
2018-03-19T08:34:31.117Z,99.90
2018-03-19T08:36:58.724Z,99.70
2018-03-19T08:39:26.320Z,99.50
2018-03-19T08:41:54.675Z,98.90
2018-03-19T08:44:22.240Z,98.50
2018-03-19T08:46:49.843Z,97.80
2018-03-19T08:49:17.428Z,98.00
2018-03-19T08:51:45.061Z,98.00
2018-03-19T08:54:13.443Z,98.20
2018-03-19T08:56:41.045Z,98.10
2018-03-19T08:59:08.676Z,97.30
2018-03-19T09:01:36.322Z,97.20
2018-03-19T09:04:03.945Z,97.90
2018-03-19T09:06:31.556Z,97.90
2018-03-19T09:08:59.183Z,97.50
2018-03-19T09:11:26.754Z,97.50
2018-03-19T09:13:55.139Z,98.80
2018-03-19T09:16:23.494Z,98.40
2018-03-19T09:18:51.083Z,98.40
2018-03-19T09:21:18.689Z,97.80
2018-03-19T09:23:46.274Z,98.30
2018-03-19T09:26:13.889Z,98.20
2018-03-19T09:28:41.496Z,98.10
2018-03-19T09:31:09.131Z,96.50
2018-03-19T09:33:36.796Z,95.80
2018-03-19T09:36:04.407Z,96.20
2018-03-19T09:38:31.997Z,95.70
2018-03-19T09:40:59.587Z,93.80
2018-03-19T09:43:27.169Z,95.20
2018-03-19T09:45:55.529Z,95.30
2018-03-19T09:48:23.151Z,95.30
2018-03-19T09:50:50.796Z,95.40
2018-03-19T09:53:18.404Z,95.80
2018-03-19T09:55:46.035Z,95.30
2018-03-19T09:58:13.632Z,93.10
2018-03-19T10:00:41.231Z,92.80
2018-03-19T10:03:08.859Z,92.10
2018-03-19T10:05:36.458Z,91.80
2018-03-19T10:08:04.045Z,91.60
2018-03-19T10:10:31.677Z,91.70
2018-03-19T10:12:59.269Z,89.40
2018-03-19T10:15:26.915Z,89.90
2018-03-19T10:17:54.566Z,85.60
2018-03-19T10:20:22.205Z,90.10
2018-03-19T10:22:49.791Z,90.10
2018-03-19T10:25:17.384Z,89.70
2018-03-19T10:27:44.996Z,91.60
2018-03-19T10:30:12.552Z,92.30
2018-03-19T10:32:40.175Z,94.30
2018-03-19T10:35:07.782Z,96.00
2018-03-19T10:37:35.356Z,96.30
2018-03-19T10:40:02.997Z,98.40
2018-03-19T10:42:30.595Z,99.50
2018-03-19T10:44:58.166Z,99.60
2018-03-19T10:47:25.744Z,99.90
2018-03-19T10:49:53.393Z,99.80
2018-03-19T10:52:20.948Z,99.90
2018-03-19T10:54:48.599Z,99.90
2018-03-19T10:57:16.188Z,99.90
2018-03-19T10:59:43.828Z,99.90
2018-03-19T11:02:16.717Z,99.90
2018-03-19T11:04:50.008Z,99.40
2018-03-19T11:07:23.208Z,99.90
2018-03-19T11:09:50.847Z,99.90
2018-03-19T11:12:18.455Z,98.90
2018-03-19T11:14:46.087Z,97.50
2018-03-19T11:17:14.810Z,96.40
2018-03-19T11:19:42.419Z,97.50
2018-03-19T11:22:09.988Z,98.10
2018-03-19T11:24:37.556Z,96.10
2018-03-19T11:27:05.191Z,97.80
2018-03-19T11:29:32.795Z,96.90
2018-03-19T11:32:01.163Z,97.10
2018-03-19T11:34:28.775Z,97.20
2018-03-19T11:36:56.385Z,97.80
2018-03-19T11:39:23.983Z,97.30
2018-03-19T11:41:51.615Z,97.30
2018-03-19T11:44:20.009Z,98.20
2018-03-19T11:46:47.591Z,98.10
2018-03-19T11:49:15.227Z,98.60
2018-03-19T11:51:43.638Z,98.80
2018-03-19T11:54:12.071Z,98.70
2018-03-19T11:56:39.712Z,98.80
2018-03-19T11:59:07.339Z,99.80
2018-03-19T12:01:34.904Z,98.70
2018-03-19T12:04:02.535Z,99.00
2018-03-19T12:06:30.115Z,97.60
2018-03-19T12:08:57.696Z,98.90
2018-03-19T12:11:25.308Z,99.00
2018-03-19T12:13:53.686Z,98.40
2018-03-19T12:16:22.706Z,97.20
2018-03-19T12:18:50.339Z,97.20
2018-03-19T12:21:18.660Z,97.20
2018-03-19T12:23:46.312Z,97.20
2018-03-19T12:26:13.907Z,97.40
2018-03-19T12:28:42.414Z,96.90
2018-03-19T12:31:10.767Z,95.40
2018-03-19T12:33:38.359Z,95.30
2018-03-19T12:36:06.700Z,94.50
2018-03-19T12:38:34.342Z,94.50
2018-03-19T12:41:01.955Z,94.60
2018-03-19T12:43:30.284Z,94.40
2018-03-19T12:45:57.883Z,94.40
2018-03-19T12:48:25.508Z,94.20
2018-03-19T12:50:53.139Z,93.80
2018-03-19T12:53:21.452Z,95.40
2018-03-19T12:55:49.115Z,95.40
2018-03-19T12:58:16.772Z,96.00
2018-03-19T13:00:45.100Z,95.20
2018-03-19T13:03:12.729Z,95.10
2018-03-19T13:05:40.372Z,93.10
2018-03-19T13:08:07.980Z,94.40
2018-03-19T13:10:36.373Z,93.40
2018-03-19T13:13:03.988Z,93.40
2018-03-19T13:15:31.587Z,93.10
2018-03-19T13:17:59.175Z,93.80
2018-03-19T13:20:26.796Z,92.90
2018-03-19T13:22:55.188Z,93.30
2018-03-19T13:25:22.829Z,93.30
2018-03-19T13:27:51.215Z,94.30
2018-03-19T13:30:19.578Z,95.00
2018-03-19T13:32:48.008Z,94.90
2018-03-19T13:35:15.633Z,94.90
2018-03-19T13:37:44.986Z,96.00
2018-03-19T13:40:12.590Z,96.00
2018-03-19T13:42:40.975Z,96.70
2018-03-19T13:45:09.348Z,97.70
2018-03-19T13:47:37.728Z,97.40
2018-03-19T13:50:06.095Z,97.60
2018-03-19T13:52:36.142Z,97.50
2018-03-19T13:55:03.750Z,97.00
2018-03-19T13:57:31.407Z,97.50
2018-03-19T13:59:59.097Z,97.70
2018-03-19T14:02:27.467Z,97.30
2018-03-19T14:04:55.081Z,97.00
2018-03-19T14:07:22.631Z,97.30
2018-03-19T14:09:50.235Z,97.50
2018-03-19T14:12:18.789Z,97.60
2018-03-19T14:14:46.379Z,98.10
2018-03-19T14:17:14.032Z,98.20
2018-03-19T14:19:41.600Z,98.30
2018-03-19T14:22:09.228Z,97.70
2018-03-19T14:24:36.827Z,97.40
2018-03-19T14:27:04.443Z,98.30
2018-03-19T14:29:32.073Z,98.00
2018-03-19T14:32:00.443Z,98.20
2018-03-19T14:34:28.071Z,98.20
2018-03-19T14:36:55.660Z,98.50
2018-03-19T14:39:24.026Z,98.50
2018-03-19T14:41:52.398Z,98.20
2018-03-19T14:44:20.019Z,98.20
2018-03-19T14:46:47.605Z,98.10
2018-03-19T14:49:15.211Z,99.20
2018-03-19T14:51:43.601Z,99.90
2018-03-19T14:54:11.219Z,99.90
2018-03-19T14:56:38.846Z,99.90
2018-03-19T14:59:06.473Z,99.90
2018-03-19T15:01:35.743Z,99.90
2018-03-19T15:04:03.405Z,99.90
2018-03-19T15:06:30.999Z,99.90
2018-03-19T15:08:58.671Z,99.90
2018-03-19T15:11:26.289Z,99.90
2018-03-19T15:13:54.383Z,99.90
2018-03-19T15:16:22.767Z,99.90
2018-03-19T15:18:52.128Z,99.90
2018-03-19T15:21:19.804Z,99.90
2018-03-19T15:23:53.447Z,99.90
2018-03-19T15:26:21.089Z,99.90
2018-03-19T15:28:49.485Z,99.90
2018-03-19T15:31:17.188Z,99.90
2018-03-19T15:33:44.722Z,99.90
2018-03-19T15:36:12.323Z,99.90
2018-03-19T15:38:39.928Z,99.90
2018-03-19T15:41:07.482Z,99.90
2018-03-19T15:43:35.098Z,99.90
2018-03-19T15:46:02.725Z,99.90
2018-03-19T15:48:30.321Z,99.90
2018-03-19T15:50:57.889Z,99.90
2018-03-19T15:53:26.261Z,99.90
2018-03-19T15:55:53.884Z,99.90
2018-03-19T16:01:25.148Z,99.90
2018-03-19T16:03:52.776Z,99.90
2018-03-19T16:06:21.180Z,99.90
2018-03-19T16:11:59.816Z,99.90
2018-03-19T16:14:28.383Z,99.90
2018-03-19T16:16:56.768Z,99.90
2018-03-19T16:19:25.134Z,99.90
2018-03-19T16:21:52.799Z,99.90
2018-03-19T16:24:21.187Z,99.90
2018-03-19T16:26:48.764Z,99.90
2018-03-19T16:29:16.361Z,99.90
2018-03-19T16:31:43.987Z,99.90
2018-03-19T16:34:11.585Z,99.90
2018-03-19T16:36:39.155Z,99.90
2018-03-19T16:39:06.759Z,99.90
2018-03-19T16:41:34.412Z,99.90
2018-03-19T16:44:02.023Z,99.90
2018-03-19T16:46:29.645Z,99.90
2018-03-19T16:48:57.292Z,99.90
2018-03-19T16:51:26.385Z,99.90
2018-03-19T16:53:54.011Z,99.90
2018-03-19T16:56:21.653Z,99.90
2018-03-19T16:58:49.268Z,99.90
2018-03-19T17:01:16.852Z,99.90
2018-03-19T17:06:42.084Z,99.90
2018-03-19T17:09:09.703Z,99.90
2018-03-19T17:11:38.092Z,99.90
2018-03-19T17:14:05.735Z,99.90
2018-03-19T17:16:34.148Z,99.90
2018-03-19T17:19:01.743Z,99.90
2018-03-19T17:21:31.304Z,99.90
2018-03-19T17:23:58.933Z,99.90
2018-03-19T17:26:26.549Z,99.90
2018-03-19T17:28:54.232Z,99.90
2018-03-19T17:31:21.840Z,99.90
2018-03-19T17:33:50.370Z,99.90
2018-03-19T17:36:18.036Z,99.90
2018-03-19T17:38:45.642Z,99.90
2018-03-19T17:41:13.236Z,99.90
2018-03-19T17:43:40.923Z,99.90
2018-03-19T17:46:08.563Z,99.90
2018-03-19T17:48:50.115Z,99.90
2018-03-19T17:51:17.746Z,99.90
2018-03-19T17:53:45.387Z,99.90
2018-03-19T17:56:12.997Z,99.90
2018-03-19T17:58:40.688Z,99.90
2018-03-19T18:01:08.315Z,99.90
2018-03-19T18:03:36.010Z,99.90
2018-03-19T18:06:03.680Z,99.90
2018-03-19T18:08:31.274Z,99.90
2018-03-19T18:10:58.976Z,99.90
2018-03-19T18:13:26.609Z,99.90
2018-03-19T18:15:59.778Z,99.90
2018-03-19T18:21:37.519Z,99.90
2018-03-19T18:24:05.137Z,99.90
2018-03-19T18:29:30.544Z,99.90
2018-03-19T18:34:50.907Z,99.90
2018-03-19T18:37:18.527Z,99.90
2018-03-19T18:39:46.193Z,99.90
2018-03-19T18:42:14.846Z,99.90
2018-03-19T18:47:36.862Z,99.90
2018-03-19T18:53:09.746Z,99.90
2018-03-19T18:55:37.383Z,99.90
2018-03-19T18:58:05.073Z,99.90
2018-03-19T19:00:32.645Z,99.90
2018-03-19T19:03:00.244Z,99.90
2018-03-19T19:05:46.455Z,99.90
2018-03-19T19:08:15.015Z,99.90
2018-03-19T19:10:42.690Z,99.90
2018-03-19T19:13:10.291Z,99.90
2018-03-19T19:15:37.967Z,99.90
2018-03-19T19:18:05.623Z,99.90
2018-03-19T19:20:33.302Z,99.90
2018-03-19T19:23:00.963Z,99.90
2018-03-19T19:25:28.631Z,99.90
2018-03-19T19:27:56.999Z,99.90
2018-03-19T19:30:24.627Z,99.90
2018-03-19T19:32:52.310Z,99.90
2018-03-19T19:35:20.003Z,99.90
2018-03-19T19:37:48.373Z,99.90
2018-03-19T19:40:16.765Z,99.90
2018-03-19T19:42:44.443Z,99.90
2018-03-19T19:45:12.845Z,99.90
2018-03-19T19:47:40.448Z,99.90
2018-03-19T19:50:08.835Z,99.90
2018-03-19T19:52:37.263Z,99.90
2018-03-19T19:55:04.907Z,99.90
2018-03-19T19:57:32.502Z,99.90
2018-03-19T20:00:00.149Z,99.90
2018-03-19T20:02:27.766Z,99.90
2018-03-19T20:05:17.909Z,99.90
2018-03-19T20:07:45.559Z,99.90
2018-03-19T20:10:13.198Z,99.90
2018-03-19T20:12:40.855Z,99.90
2018-03-19T20:15:08.594Z,99.90
2018-03-19T20:17:36.979Z,99.90
2018-03-19T20:20:05.329Z,99.90
2018-03-19T20:22:32.976Z,99.90
2018-03-19T20:25:01.579Z,99.90
2018-03-19T20:27:29.227Z,99.90
2018-03-19T20:29:56.817Z,99.90
2018-03-19T20:32:25.197Z,99.90
2018-03-19T20:34:53.549Z,99.90
2018-03-19T20:37:21.246Z,99.90
2018-03-19T20:39:48.830Z,99.90
2018-03-19T20:42:16.465Z,99.90
2018-03-19T20:44:44.890Z,99.90
2018-03-19T20:47:12.514Z,99.90
2018-03-19T20:49:40.145Z,99.90
2018-03-19T20:52:07.765Z,99.90
2018-03-19T20:54:35.380Z,99.90
2018-03-19T20:57:03.903Z,99.90
2018-03-19T20:59:31.510Z,99.90
2018-03-19T21:01:59.138Z,99.90
2018-03-19T21:04:26.805Z,99.90
2018-03-19T21:06:54.392Z,99.90
2018-03-19T21:09:22.064Z,99.90
2018-03-19T21:11:50.440Z,99.90
2018-03-19T21:14:18.841Z,99.90
2018-03-19T21:16:46.460Z,99.90
2018-03-19T21:19:14.078Z,99.90
2018-03-19T21:21:41.692Z,99.90
2018-03-19T21:24:09.473Z,99.90
2018-03-19T21:26:37.863Z,99.90
2018-03-19T21:29:05.543Z,99.90
2018-03-19T21:31:33.173Z,99.90
2018-03-19T21:34:00.800Z,99.90
2018-03-19T21:36:28.423Z,99.90
2018-03-19T21:38:56.033Z,99.90
2018-03-19T21:41:23.696Z,99.90
2018-03-19T21:43:51.311Z,99.90
2018-03-19T21:46:19.008Z,99.90
2018-03-19T21:48:46.608Z,99.90
2018-03-19T21:51:15.025Z,99.90
2018-03-19T21:53:42.647Z,99.90
2018-03-19T21:56:11.079Z,99.90
2018-03-19T21:58:38.679Z,99.90
2018-03-19T22:01:07.039Z,99.90
2018-03-19T22:03:34.666Z,99.90
2018-03-19T22:06:02.265Z,99.90
2018-03-19T22:08:29.862Z,99.90
2018-03-19T22:10:57.474Z,99.90
2018-03-19T22:13:25.120Z,99.90
2018-03-19T22:15:52.800Z,99.90
2018-03-19T22:18:20.370Z,99.90
2018-03-19T22:20:47.991Z,99.90
2018-03-19T22:23:15.591Z,99.90
2018-03-19T22:25:43.193Z,99.90
2018-03-19T22:28:10.791Z,99.90
2018-03-19T22:30:39.580Z,99.90
2018-03-19T22:33:07.191Z,99.90
2018-03-19T22:35:34.843Z,99.90
2018-03-19T22:38:02.471Z,99.90
2018-03-19T22:40:30.063Z,99.90
2018-03-19T22:42:58.446Z,99.90
2018-03-19T22:45:26.111Z,99.90
2018-03-19T22:47:53.708Z,99.90
2018-03-19T22:50:21.278Z,99.90
2018-03-19T22:52:48.917Z,99.90
2018-03-19T22:55:16.530Z,99.90
2018-03-19T22:57:44.917Z,99.90
2018-03-19T23:00:13.260Z,99.90
2018-03-19T23:02:40.874Z,99.90
2018-03-19T23:05:23.367Z,99.90
2018-03-19T23:07:51.771Z,99.90
2018-03-19T23:10:19.396Z,99.90
2018-03-19T23:12:46.993Z,99.90
2018-03-19T23:15:15.542Z,99.90
2018-03-19T23:17:43.908Z,99.90
2018-03-19T23:20:12.298Z,99.90
2018-03-19T23:22:40.710Z,99.90
2018-03-19T23:25:08.336Z,99.90
2018-03-19T23:27:36.694Z,99.90
2018-03-19T23:30:04.300Z,99.90
2018-03-19T23:32:31.896Z,99.90
2018-03-19T23:34:59.514Z,99.90
2018-03-19T23:37:27.132Z,99.90
2018-03-19T23:39:54.788Z,99.90
2018-03-19T23:42:22.409Z,99.90
2018-03-19T23:44:50.013Z,99.90
2018-03-19T23:47:17.639Z,99.90
2018-03-19T23:49:45.246Z,99.90
2018-03-19T23:52:12.874Z,99.90
2018-03-19T23:54:40.466Z,99.90
2018-03-19T23:57:08.084Z,99.90
2018-03-19T23:59:35.674Z,99.90
